sensor_id;sensor_type;location;lat;lon;timestamp;pressure;altitude;pressure_sealevel;temperature;humidity
52032;BME280;38044;45.148;39.604;2022-07-22T00:00:05;100587.50;;;16.71;79.14
52032;BME280;38044;45.148;39.604;2022-07-22T00:02:31;100580.41;;;16.58;78.92
52032;BME280;38044;45.148;39.604;2022-07-22T00:04:57;100562.34;;;16.41;79.06
52032;BME280;38044;45.148;39.604;2022-07-22T00:07:23;100568.06;;;16.39;79.38
52032;BME280;38044;45.148;39.604;2022-07-22T00:09:49;100582.25;;;16.45;79.82
52032;BME280;38044;45.148;39.604;2022-07-22T00:12:15;100571.97;;;16.30;80.00
52032;BME280;38044;45.148;39.604;2022-07-22T00:14:41;100552.78;;;16.14;80.06
52032;BME280;38044;45.148;39.604;2022-07-22T00:17:07;100498.00;;;15.70;80.14
52032;BME280;38044;45.148;39.604;2022-07-22T00:19:33;100579.03;;;16.22;80.65
52032;BME280;38044;45.148;39.604;2022-07-22T00:22:00;100542.66;;;15.93;80.96
52032;BME280;38044;45.148;39.604;2022-07-22T00:24:26;100582.88;;;16.21;80.96
52032;BME280;38044;45.148;39.604;2022-07-22T00:26:52;100564.47;;;16.06;81.07
52032;BME280;38044;45.148;39.604;2022-07-22T00:29:18;100571.56;;;16.19;81.21
52032;BME280;38044;45.148;39.604;2022-07-22T00:31:43;100577.78;;;16.19;81.35
52032;BME280;38044;45.148;39.604;2022-07-22T00:34:09;100579.91;;;16.14;81.32
52032;BME280;38044;45.148;39.604;2022-07-22T00:36:35;100536.47;;;15.93;81.53
52032;BME280;38044;45.148;39.604;2022-07-22T00:39:01;100572.34;;;16.19;81.61
52032;BME280;38044;45.148;39.604;2022-07-22T00:41:28;100470.47;;;15.50;81.81
52032;BME280;38044;45.148;39.604;2022-07-22T00:44:02;100583.75;;;16.34;82.11
52032;BME280;38044;45.148;39.604;2022-07-22T00:46:30;100582.03;;;16.29;81.51
52032;BME280;38044;45.148;39.604;2022-07-22T00:48:57;100521.63;;;15.90;81.55
52032;BME280;38044;45.148;39.604;2022-07-22T00:51:25;100563.41;;;16.19;81.56
52032;BME280;38044;45.148;39.604;2022-07-22T00:53:52;100579.31;;;16.29;81.58
52032;BME280;38044;45.148;39.604;2022-07-22T00:56:18;100568.13;;;16.31;81.55
52032;BME280;38044;45.148;39.604;2022-07-22T00:58:47;100551.97;;;16.13;81.75
52032;BME280;38044;45.148;39.604;2022-07-22T01:01:13;100562.97;;;16.17;81.99
52032;BME280;38044;45.148;39.604;2022-07-22T01:03:39;100577.19;;;16.14;82.37
52032;BME280;38044;45.148;39.604;2022-07-22T01:06:05;100567.59;;;16.16;82.08
52032;BME280;38044;45.148;39.604;2022-07-22T01:08:32;100498.47;;;15.72;81.82
52032;BME280;38044;45.148;39.604;2022-07-22T01:11:08;100578.19;;;16.30;81.96
52032;BME280;38044;45.148;39.604;2022-07-22T01:13:35;100579.25;;;16.17;81.95
52032;BME280;38044;45.148;39.604;2022-07-22T01:16:03;100513.09;;;15.80;81.91
52032;BME280;38044;45.148;39.604;2022-07-22T01:18:29;100522.44;;;15.91;81.36
52032;BME280;38044;45.148;39.604;2022-07-22T01:20:55;100574.75;;;16.21;81.18
52032;BME280;38044;45.148;39.604;2022-07-22T01:23:21;100582.41;;;16.19;81.56
52032;BME280;38044;45.148;39.604;2022-07-22T01:25:47;100570.16;;;16.13;81.40
52032;BME280;38044;45.148;39.604;2022-07-22T01:28:13;100575.09;;;16.11;80.95
52032;BME280;38044;45.148;39.604;2022-07-22T01:30:39;100509.31;;;15.72;80.74
52032;BME280;38044;45.148;39.604;2022-07-22T01:33:05;100511.50;;;15.79;80.27
52032;BME280;38044;45.148;39.604;2022-07-22T01:35:31;100558.09;;;16.02;80.52
52032;BME280;38044;45.148;39.604;2022-07-22T01:37:57;100546.03;;;15.90;80.39
52032;BME280;38044;45.148;39.604;2022-07-22T01:40:23;100569.41;;;16.04;80.30
52032;BME280;38044;45.148;39.604;2022-07-22T01:42:49;100577.22;;;16.05;80.76
52032;BME280;38044;45.148;39.604;2022-07-22T01:45:15;100526.84;;;15.66;81.20
52032;BME280;38044;45.148;39.604;2022-07-22T01:47:41;100592.06;;;15.99;81.50
52032;BME280;38044;45.148;39.604;2022-07-22T01:50:08;100553.31;;;15.69;81.64
52032;BME280;38044;45.148;39.604;2022-07-22T01:52:35;100578.78;;;15.85;81.86
52032;BME280;38044;45.148;39.604;2022-07-22T01:55:01;100523.59;;;15.43;81.90
52032;BME280;38044;45.148;39.604;2022-07-22T01:57:27;100565.75;;;15.70;82.30
52032;BME280;38044;45.148;39.604;2022-07-22T01:59:53;100560.66;;;15.60;82.60
52032;BME280;38044;45.148;39.604;2022-07-22T02:02:18;100513.56;;;15.35;82.55
52032;BME280;38044;45.148;39.604;2022-07-22T02:04:44;100581.94;;;15.87;82.36
52032;BME280;38044;45.148;39.604;2022-07-22T02:07:10;100517.53;;;15.46;82.94
52032;BME280;38044;45.148;39.604;2022-07-22T02:09:36;100584.63;;;15.87;83.02
52032;BME280;38044;45.148;39.604;2022-07-22T02:12:02;100599.34;;;16.16;82.68
52032;BME280;38044;45.148;39.604;2022-07-22T02:14:28;100551.84;;;16.10;81.74
52032;BME280;38044;45.148;39.604;2022-07-22T02:16:54;100597.84;;;16.48;81.35
52032;BME280;38044;45.148;39.604;2022-07-22T02:19:20;100569.22;;;16.38;80.92
52032;BME280;38044;45.148;39.604;2022-07-22T02:21:46;100585.78;;;16.66;80.06
52032;BME280;38044;45.148;39.604;2022-07-22T02:24:12;100526.88;;;16.46;79.71
52032;BME280;38044;45.148;39.604;2022-07-22T02:26:38;100547.78;;;16.66;79.26
52032;BME280;38044;45.148;39.604;2022-07-22T02:29:04;100508.84;;;16.62;78.78
52032;BME280;38044;45.148;39.604;2022-07-22T02:31:29;100500.06;;;16.99;77.70
52032;BME280;38044;45.148;39.604;2022-07-22T02:33:55;100573.78;;;17.67;76.89
52032;BME280;38044;45.148;39.604;2022-07-22T02:36:21;100564.03;;;17.54;77.10
52032;BME280;38044;45.148;39.604;2022-07-22T02:38:47;100531.84;;;17.31;77.75
52032;BME280;38044;45.148;39.604;2022-07-22T02:41:13;100571.06;;;17.55;78.13
52032;BME280;38044;45.148;39.604;2022-07-22T02:43:39;100535.47;;;17.23;78.75
52032;BME280;38044;45.148;39.604;2022-07-22T02:46:05;100577.63;;;17.54;78.87
52032;BME280;38044;45.148;39.604;2022-07-22T02:48:31;100533.19;;;17.25;79.24
52032;BME280;38044;45.148;39.604;2022-07-22T02:50:57;100579.00;;;17.60;79.22
52032;BME280;38044;45.148;39.604;2022-07-22T02:53:23;100516.66;;;17.30;79.03
52032;BME280;38044;45.148;39.604;2022-07-22T02:55:48;100577.69;;;17.91;78.42
52032;BME280;38044;45.148;39.604;2022-07-22T02:58:14;100528.94;;;17.73;77.96
52032;BME280;38044;45.148;39.604;2022-07-22T03:00:40;100532.03;;;17.84;77.57
52032;BME280;38044;45.148;39.604;2022-07-22T03:03:06;100575.88;;;18.07;77.39
52032;BME280;38044;45.148;39.604;2022-07-22T03:05:33;100595.47;;;18.13;77.61
52032;BME280;38044;45.148;39.604;2022-07-22T03:07:59;100599.22;;;18.08;77.73
52032;BME280;38044;45.148;39.604;2022-07-22T03:10:24;100505.84;;;17.55;77.68
52032;BME280;38044;45.148;39.604;2022-07-22T03:12:50;100590.38;;;18.11;77.65
52032;BME280;38044;45.148;39.604;2022-07-22T03:15:16;100572.69;;;18.05;77.88
52032;BME280;38044;45.148;39.604;2022-07-22T03:17:42;100582.44;;;18.18;77.60
52032;BME280;38044;45.148;39.604;2022-07-22T03:20:09;100574.06;;;18.23;77.48
52032;BME280;38044;45.148;39.604;2022-07-22T03:22:37;100593.75;;;18.45;77.09
52032;BME280;38044;45.148;39.604;2022-07-22T03:25:03;100579.94;;;18.38;77.29
52032;BME280;38044;45.148;39.604;2022-07-22T03:27:29;100597.81;;;18.63;77.59
52032;BME280;38044;45.148;39.604;2022-07-22T03:29:55;100583.00;;;18.89;76.51
52032;BME280;38044;45.148;39.604;2022-07-22T03:32:21;100575.34;;;19.23;75.22
52032;BME280;38044;45.148;39.604;2022-07-22T03:34:47;100594.94;;;19.28;75.05
52032;BME280;38044;45.148;39.604;2022-07-22T03:37:13;100577.63;;;19.21;75.04
52032;BME280;38044;45.148;39.604;2022-07-22T03:39:38;100602.28;;;19.40;75.18
52032;BME280;38044;45.148;39.604;2022-07-22T03:42:04;100556.22;;;19.35;74.72
52032;BME280;38044;45.148;39.604;2022-07-22T03:44:30;100576.00;;;20.46;72.41
52032;BME280;38044;45.148;39.604;2022-07-22T03:46:57;100586.06;;;21.40;69.30
52032;BME280;38044;45.148;39.604;2022-07-22T03:49:23;100585.31;;;21.62;68.13
52032;BME280;38044;45.148;39.604;2022-07-22T03:51:49;100588.09;;;22.42;66.31
52032;BME280;38044;45.148;39.604;2022-07-22T03:54:15;100522.63;;;22.97;63.06
52032;BME280;38044;45.148;39.604;2022-07-22T03:56:41;100604.31;;;23.55;62.39
52032;BME280;38044;45.148;39.604;2022-07-22T03:59:08;100531.78;;;23.12;61.53
52032;BME280;38044;45.148;39.604;2022-07-22T04:01:34;100553.91;;;23.30;61.90
52032;BME280;38044;45.148;39.604;2022-07-22T04:04:00;100594.09;;;24.00;60.64
52032;BME280;38044;45.148;39.604;2022-07-22T04:06:26;100574.34;;;24.36;58.80
52032;BME280;38044;45.148;39.604;2022-07-22T04:08:51;100552.47;;;24.57;57.67
52032;BME280;38044;45.148;39.604;2022-07-22T04:11:17;100550.91;;;24.56;57.74
52032;BME280;38044;45.148;39.604;2022-07-22T04:13:43;100600.25;;;25.22;56.94
52032;BME280;38044;45.148;39.604;2022-07-22T04:16:09;100571.53;;;25.23;56.27
52032;BME280;38044;45.148;39.604;2022-07-22T04:18:35;100568.47;;;25.64;55.17
52032;BME280;38044;45.148;39.604;2022-07-22T04:21:01;100596.72;;;26.33;54.25
52032;BME280;38044;45.148;39.604;2022-07-22T04:23:26;100593.81;;;27.53;51.75
52032;BME280;38044;45.148;39.604;2022-07-22T04:25:52;100587.59;;;28.96;48.85
52032;BME280;38044;45.148;39.604;2022-07-22T04:28:18;100600.16;;;30.06;46.37
52032;BME280;38044;45.148;39.604;2022-07-22T04:30:44;100599.50;;;30.82;45.12
52032;BME280;38044;45.148;39.604;2022-07-22T04:33:10;100548.31;;;31.03;43.26
52032;BME280;38044;45.148;39.604;2022-07-22T04:35:36;100599.00;;;31.89;42.29
52032;BME280;38044;45.148;39.604;2022-07-22T04:38:02;100545.97;;;31.99;41.21
52032;BME280;38044;45.148;39.604;2022-07-22T04:40:28;100602.81;;;32.40;40.98
52032;BME280;38044;45.148;39.604;2022-07-22T04:42:57;100587.41;;;32.65;40.37
52032;BME280;38044;45.148;39.604;2022-07-22T04:45:23;100601.91;;;32.72;40.15
52032;BME280;38044;45.148;39.604;2022-07-22T04:47:49;100588.69;;;32.89;39.58
52032;BME280;38044;45.148;39.604;2022-07-22T04:50:15;100590.03;;;32.97;39.57
52032;BME280;38044;45.148;39.604;2022-07-22T04:52:40;100598.94;;;32.92;39.47
52032;BME280;38044;45.148;39.604;2022-07-22T04:55:07;100563.41;;;32.84;40.04
52032;BME280;38044;45.148;39.604;2022-07-22T04:57:32;100515.25;;;33.00;38.92
52032;BME280;38044;45.148;39.604;2022-07-22T04:59:58;100586.47;;;33.61;38.66
52032;BME280;38044;45.148;39.604;2022-07-22T05:02:24;100562.38;;;33.67;38.06
52032;BME280;38044;45.148;39.604;2022-07-22T05:04:50;100524.97;;;33.42;38.31
52032;BME280;38044;45.148;39.604;2022-07-22T05:07:16;100590.16;;;33.93;37.86
52032;BME280;38044;45.148;39.604;2022-07-22T05:09:42;100595.03;;;34.14;37.54
52032;BME280;38044;45.148;39.604;2022-07-22T05:12:07;100590.22;;;34.37;37.08
52032;BME280;38044;45.148;39.604;2022-07-22T05:14:33;100586.34;;;34.34;36.97
52032;BME280;38044;45.148;39.604;2022-07-22T05:17:00;100594.00;;;34.43;36.67
52032;BME280;38044;45.148;39.604;2022-07-22T05:19:25;100572.06;;;34.10;36.79
52032;BME280;38044;45.148;39.604;2022-07-22T05:21:51;100594.38;;;34.54;36.77
52032;BME280;38044;45.148;39.604;2022-07-22T05:24:17;100553.25;;;34.23;35.79
52032;BME280;38044;45.148;39.604;2022-07-22T05:26:43;100589.47;;;34.58;36.20
52032;BME280;38044;45.148;39.604;2022-07-22T05:29:09;100568.22;;;34.61;35.17
52032;BME280;38044;45.148;39.604;2022-07-22T05:31:35;100589.59;;;34.86;35.17
52032;BME280;38044;45.148;39.604;2022-07-22T05:34:00;100581.94;;;35.08;34.60
52032;BME280;38044;45.148;39.604;2022-07-22T05:36:28;100536.13;;;34.96;34.41
52032;BME280;38044;45.148;39.604;2022-07-22T05:38:54;100569.25;;;35.66;33.58
52032;BME280;38044;45.148;39.604;2022-07-22T05:41:20;100558.16;;;35.44;33.02
52032;BME280;38044;45.148;39.604;2022-07-22T05:43:45;100586.78;;;35.67;33.33
52032;BME280;38044;45.148;39.604;2022-07-22T05:46:11;100541.91;;;35.79;32.93
52032;BME280;38044;45.148;39.604;2022-07-22T05:48:37;100586.16;;;36.45;32.45
52032;BME280;38044;45.148;39.604;2022-07-22T05:51:03;100564.22;;;36.62;31.98
52032;BME280;38044;45.148;39.604;2022-07-22T05:53:29;100581.81;;;36.96;31.29
52032;BME280;38044;45.148;39.604;2022-07-22T05:55:55;100520.53;;;36.46;31.84
52032;BME280;38044;45.148;39.604;2022-07-22T05:58:21;100568.63;;;36.87;30.70
52032;BME280;38044;45.148;39.604;2022-07-22T06:00:47;100524.38;;;36.67;30.90
52032;BME280;38044;45.148;39.604;2022-07-22T06:03:12;100555.19;;;36.67;30.56
52032;BME280;38044;45.148;39.604;2022-07-22T06:05:38;100555.41;;;36.27;31.56
52032;BME280;38044;45.148;39.604;2022-07-22T06:08:05;100564.38;;;36.59;30.41
52032;BME280;38044;45.148;39.604;2022-07-22T06:10:30;100546.06;;;36.39;30.92
52032;BME280;38044;45.148;39.604;2022-07-22T06:12:56;100537.72;;;36.12;30.68
52032;BME280;38044;45.148;39.604;2022-07-22T06:15:22;100485.94;;;35.33;31.42
52032;BME280;38044;45.148;39.604;2022-07-22T06:17:48;100569.03;;;36.62;30.40
52032;BME280;38044;45.148;39.604;2022-07-22T06:20:14;100572.66;;;36.95;29.99
52032;BME280;38044;45.148;39.604;2022-07-22T06:22:40;100572.34;;;36.93;29.13
52032;BME280;38044;45.148;39.604;2022-07-22T06:25:06;100513.09;;;36.34;30.00
52032;BME280;38044;45.148;39.604;2022-07-22T06:27:33;100562.75;;;36.76;30.80
52032;BME280;38044;45.148;39.604;2022-07-22T06:30:00;100565.47;;;37.04;29.03
52032;BME280;38044;45.148;39.604;2022-07-22T06:32:25;100538.56;;;36.45;29.88
52032;BME280;38044;45.148;39.604;2022-07-22T06:34:51;100557.25;;;36.39;30.13
52032;BME280;38044;45.148;39.604;2022-07-22T06:37:17;100554.13;;;36.56;29.25
52032;BME280;38044;45.148;39.604;2022-07-22T06:39:43;100565.19;;;36.41;30.13
52032;BME280;38044;45.148;39.604;2022-07-22T06:42:09;100517.66;;;36.74;29.92
52032;BME280;38044;45.148;39.604;2022-07-22T06:44:35;100516.59;;;37.05;28.68
52032;BME280;38044;45.148;39.604;2022-07-22T06:47:00;100579.25;;;37.16;28.44
52032;BME280;38044;45.148;39.604;2022-07-22T06:49:26;100537.03;;;36.44;29.46
52032;BME280;38044;45.148;39.604;2022-07-22T06:51:52;100532.69;;;36.34;29.69
52032;BME280;38044;45.148;39.604;2022-07-22T06:54:18;100511.66;;;36.48;28.53
52032;BME280;38044;45.148;39.604;2022-07-22T06:56:44;100515.94;;;36.16;28.72
52032;BME280;38044;45.148;39.604;2022-07-22T06:59:10;100513.75;;;36.29;29.15
52032;BME280;38044;45.148;39.604;2022-07-22T07:01:36;100529.06;;;36.61;29.14
52032;BME280;38044;45.148;39.604;2022-07-22T07:04:02;100563.28;;;36.98;28.33
52032;BME280;38044;45.148;39.604;2022-07-22T07:06:28;100544.28;;;37.12;28.08
52032;BME280;38044;45.148;39.604;2022-07-22T07:08:53;100523.50;;;36.85;28.20
52032;BME280;38044;45.148;39.604;2022-07-22T07:11:19;100530.19;;;36.55;28.38
52032;BME280;38044;45.148;39.604;2022-07-22T07:13:45;100548.72;;;36.85;27.88
52032;BME280;38044;45.148;39.604;2022-07-22T07:16:11;100532.97;;;36.45;28.04
52032;BME280;38044;45.148;39.604;2022-07-22T07:18:37;100548.19;;;36.63;28.17
52032;BME280;38044;45.148;39.604;2022-07-22T07:21:04;100493.31;;;36.56;27.73
52032;BME280;38044;45.148;39.604;2022-07-22T07:23:30;100540.84;;;37.08;26.66
52032;BME280;38044;45.148;39.604;2022-07-22T07:25:56;100487.91;;;36.52;25.77
52032;BME280;38044;45.148;39.604;2022-07-22T07:28:22;100536.06;;;36.57;26.73
52032;BME280;38044;45.148;39.604;2022-07-22T07:30:48;100547.91;;;36.42;27.10
52032;BME280;38044;45.148;39.604;2022-07-22T07:33:15;100535.69;;;35.84;27.49
52032;BME280;38044;45.148;39.604;2022-07-22T07:35:40;100522.19;;;35.64;27.51
52032;BME280;38044;45.148;39.604;2022-07-22T07:38:06;100530.56;;;35.74;28.00
52032;BME280;38044;45.148;39.604;2022-07-22T07:40:33;100510.81;;;35.50;27.91
52032;BME280;38044;45.148;39.604;2022-07-22T07:42:59;100487.34;;;35.29;28.62
52032;BME280;38044;45.148;39.604;2022-07-22T07:45:25;100524.53;;;35.66;28.84
52032;BME280;38044;45.148;39.604;2022-07-22T07:47:51;100522.78;;;36.24;28.14
52032;BME280;38044;45.148;39.604;2022-07-22T07:50:17;100497.75;;;36.11;28.75
52032;BME280;38044;45.148;39.604;2022-07-22T07:52:44;100552.28;;;36.52;28.51
52032;BME280;38044;45.148;39.604;2022-07-22T07:55:13;100548.81;;;36.48;28.53
52032;BME280;38044;45.148;39.604;2022-07-22T07:57:39;100548.81;;;36.67;28.32
52032;BME280;38044;45.148;39.604;2022-07-22T08:00:09;100540.91;;;36.47;28.81
52032;BME280;38044;45.148;39.604;2022-07-22T08:02:35;100513.97;;;35.89;28.50
52032;BME280;38044;45.148;39.604;2022-07-22T08:05:01;100551.38;;;35.73;29.46
52032;BME280;38044;45.148;39.604;2022-07-22T08:07:28;100526.22;;;35.73;29.19
52032;BME280;38044;45.148;39.604;2022-07-22T08:09:54;100490.16;;;35.29;28.71
52032;BME280;38044;45.148;39.604;2022-07-22T08:12:20;100520.75;;;35.51;29.48
52032;BME280;38044;45.148;39.604;2022-07-22T08:14:46;100554.03;;;36.04;29.71
52032;BME280;38044;45.148;39.604;2022-07-22T08:17:12;100495.44;;;35.54;29.70
52032;BME280;38044;45.148;39.604;2022-07-22T08:19:38;100507.59;;;35.70;28.84
52032;BME280;38044;45.148;39.604;2022-07-22T08:22:04;100496.34;;;35.24;28.91
52032;BME280;38044;45.148;39.604;2022-07-22T08:24:30;100547.53;;;35.11;29.29
52032;BME280;38044;45.148;39.604;2022-07-22T08:26:56;100539.50;;;35.32;29.66
52032;BME280;38044;45.148;39.604;2022-07-22T08:29:21;100522.84;;;35.10;29.52
52032;BME280;38044;45.148;39.604;2022-07-22T08:31:47;100529.59;;;34.99;29.41
52032;BME280;38044;45.148;39.604;2022-07-22T08:34:14;100551.88;;;35.12;29.83
52032;BME280;38044;45.148;39.604;2022-07-22T08:36:40;100541.09;;;35.02;30.97
52032;BME280;38044;45.148;39.604;2022-07-22T08:39:06;100512.50;;;35.29;29.97
52032;BME280;38044;45.148;39.604;2022-07-22T08:41:36;100542.34;;;35.59;28.96
52032;BME280;38044;45.148;39.604;2022-07-22T08:44:04;100533.03;;;35.62;29.50
52032;BME280;38044;45.148;39.604;2022-07-22T08:46:30;100517.16;;;35.50;29.56
52032;BME280;38044;45.148;39.604;2022-07-22T08:48:56;100514.06;;;35.48;29.38
52032;BME280;38044;45.148;39.604;2022-07-22T08:51:24;100463.81;;;35.57;29.61
52032;BME280;38044;45.148;39.604;2022-07-22T08:53:49;100499.19;;;35.79;29.71
52032;BME280;38044;45.148;39.604;2022-07-22T08:56:15;100510.53;;;36.12;29.01
52032;BME280;38044;45.148;39.604;2022-07-22T08:58:41;100481.44;;;35.45;29.40
52032;BME280;38044;45.148;39.604;2022-07-22T09:01:09;100514.38;;;35.41;29.66
52032;BME280;38044;45.148;39.604;2022-07-22T09:03:50;100510.03;;;35.40;30.18
52032;BME280;38044;45.148;39.604;2022-07-22T09:06:18;100511.56;;;34.82;31.47
52032;BME280;38044;45.148;39.604;2022-07-22T09:08:58;100442.22;;;34.81;30.06
52032;BME280;38044;45.148;39.604;2022-07-22T09:11:27;100512.44;;;35.10;31.39
52032;BME280;38044;45.148;39.604;2022-07-22T09:13:55;100493.84;;;34.76;31.89
52032;BME280;38044;45.148;39.604;2022-07-22T09:19:06;100453.06;;;34.69;32.09
52032;BME280;38044;45.148;39.604;2022-07-22T09:21:34;100447.88;;;34.27;31.96
52032;BME280;38044;45.148;39.604;2022-07-22T09:24:01;100482.72;;;33.44;32.90
52032;BME280;38044;45.148;39.604;2022-07-22T09:26:32;100417.09;;;33.43;32.63
52032;BME280;38044;45.148;39.604;2022-07-22T09:28:59;100513.03;;;34.12;33.19
52032;BME280;38044;45.148;39.604;2022-07-22T09:31:26;100444.94;;;34.00;32.08
52032;BME280;38044;45.148;39.604;2022-07-22T09:33:54;100447.97;;;33.71;33.13
52032;BME280;38044;45.148;39.604;2022-07-22T09:36:20;100463.44;;;32.64;34.46
52032;BME280;38044;45.148;39.604;2022-07-22T09:38:47;100451.13;;;31.81;35.51
52032;BME280;38044;45.148;39.604;2022-07-22T09:41:13;100438.44;;;32.22;34.77
52032;BME280;38044;45.148;39.604;2022-07-22T09:43:40;100454.25;;;31.83;35.62
52032;BME280;38044;45.148;39.604;2022-07-22T09:46:05;100495.25;;;31.79;36.79
52032;BME280;38044;45.148;39.604;2022-07-22T09:48:31;100494.72;;;31.84;37.18
52032;BME280;38044;45.148;39.604;2022-07-22T09:50:57;100465.94;;;31.61;35.32
52032;BME280;38044;45.148;39.604;2022-07-22T09:53:28;100494.69;;;32.68;35.95
52032;BME280;38044;45.148;39.604;2022-07-22T09:55:55;100483.47;;;33.10;35.25
52032;BME280;38044;45.148;39.604;2022-07-22T09:58:22;100429.75;;;33.22;34.32
52032;BME280;38044;45.148;39.604;2022-07-22T10:00:49;100468.50;;;33.29;35.58
52032;BME280;38044;45.148;39.604;2022-07-22T10:03:25;100498.50;;;33.12;34.77
52032;BME280;38044;45.148;39.604;2022-07-22T10:05:51;100475.75;;;31.95;37.13
52032;BME280;38044;45.148;39.604;2022-07-22T10:08:18;100495.31;;;31.30;37.53
52032;BME280;38044;45.148;39.604;2022-07-22T10:10:45;100425.47;;;30.66;38.54
52032;BME280;38044;45.148;39.604;2022-07-22T10:13:11;100484.81;;;31.21;39.41
52032;BME280;38044;45.148;39.604;2022-07-22T10:15:37;100486.19;;;30.80;38.92
52032;BME280;38044;45.148;39.604;2022-07-22T10:18:06;100445.25;;;29.92;39.99
52032;BME280;38044;45.148;39.604;2022-07-22T10:20:33;100492.75;;;29.90;40.12
52032;BME280;38044;45.148;39.604;2022-07-22T10:23:01;100482.16;;;29.65;40.59
52032;BME280;38044;45.148;39.604;2022-07-22T10:25:29;100444.06;;;29.26;41.46
52032;BME280;38044;45.148;39.604;2022-07-22T10:28:04;100422.94;;;29.12;40.46
52032;BME280;38044;45.148;39.604;2022-07-22T10:30:32;100481.66;;;29.47;41.86
52032;BME280;38044;45.148;39.604;2022-07-22T10:33:09;100475.81;;;30.08;41.05
52032;BME280;38044;45.148;39.604;2022-07-22T10:35:58;100486.81;;;30.12;39.54
52032;BME280;38044;45.148;39.604;2022-07-22T10:38:25;100482.75;;;29.53;40.77
52032;BME280;38044;45.148;39.604;2022-07-22T10:40:58;100489.00;;;29.80;40.30
52032;BME280;38044;45.148;39.604;2022-07-22T10:43:29;100473.06;;;29.84;41.17
52032;BME280;38044;45.148;39.604;2022-07-22T10:46:00;100399.94;;;30.02;41.63
52032;BME280;38044;45.148;39.604;2022-07-22T10:51:12;100445.28;;;30.48;39.27
52032;BME280;38044;45.148;39.604;2022-07-22T10:56:26;100513.38;;;28.91;44.57
52032;BME280;38044;45.148;39.604;2022-07-22T10:59:15;100503.09;;;28.30;46.68
52032;BME280;38044;45.148;39.604;2022-07-22T11:01:45;100486.03;;;27.22;49.44
52032;BME280;38044;45.148;39.604;2022-07-22T11:04:22;100512.38;;;27.27;50.86
52032;BME280;38044;45.148;39.604;2022-07-22T11:06:51;100504.81;;;27.34;49.93
52032;BME280;38044;45.148;39.604;2022-07-22T11:09:18;100505.69;;;27.24;50.45
52032;BME280;38044;45.148;39.604;2022-07-22T11:11:51;100504.81;;;26.75;50.94
52032;BME280;38044;45.148;39.604;2022-07-22T11:14:28;100509.34;;;26.26;52.47
52032;BME280;38044;45.148;39.604;2022-07-22T11:17:13;100526.75;;;25.94;52.57
52032;BME280;38044;45.148;39.604;2022-07-22T11:19:40;100529.94;;;25.50;54.22
52032;BME280;38044;45.148;39.604;2022-07-22T11:22:08;100479.56;;;25.03;55.58
52032;BME280;38044;45.148;39.604;2022-07-22T11:24:35;100525.94;;;25.04;56.96
52032;BME280;38044;45.148;39.604;2022-07-22T11:27:02;100507.50;;;25.19;54.56
52032;BME280;38044;45.148;39.604;2022-07-22T11:29:31;100503.97;;;25.40;53.28
52032;BME280;38044;45.148;39.604;2022-07-22T11:32:00;100522.81;;;25.63;52.49
52032;BME280;38044;45.148;39.604;2022-07-22T11:34:27;100520.84;;;25.78;52.32
52032;BME280;38044;45.148;39.604;2022-07-22T11:36:54;100520.84;;;25.96;51.69
52032;BME280;38044;45.148;39.604;2022-07-22T11:39:28;100517.22;;;26.20;51.11
52032;BME280;38044;45.148;39.604;2022-07-22T11:41:56;100502.25;;;26.28;50.76
52032;BME280;38044;45.148;39.604;2022-07-22T11:44:26;100521.09;;;26.41;49.63
52032;BME280;38044;45.148;39.604;2022-07-22T11:46:53;100504.25;;;26.24;48.38
52032;BME280;38044;45.148;39.604;2022-07-22T11:49:24;100518.44;;;26.19;48.93
52032;BME280;38044;45.148;39.604;2022-07-22T11:51:51;100523.09;;;26.33;49.61
52032;BME280;38044;45.148;39.604;2022-07-22T11:54:17;100527.81;;;26.36;50.08
52032;BME280;38044;45.148;39.604;2022-07-22T11:56:44;100521.97;;;26.27;50.73
52032;BME280;38044;45.148;39.604;2022-07-22T11:59:13;100485.06;;;25.96;51.45
52032;BME280;38044;45.148;39.604;2022-07-22T12:01:39;100537.66;;;26.34;51.97
52032;BME280;38044;45.148;39.604;2022-07-22T12:04:12;100466.53;;;26.00;52.43
52032;BME280;38044;45.148;39.604;2022-07-22T12:06:41;100499.13;;;26.30;53.31
52032;BME280;38044;45.148;39.604;2022-07-22T12:09:43;100536.84;;;26.40;53.46
52032;BME280;38044;45.148;39.604;2022-07-22T12:12:02;100543.13;;;26.48;53.91
52032;BME280;38044;45.148;39.604;2022-07-22T12:14:31;100525.09;;;26.33;55.24
52032;BME280;38044;45.148;39.604;2022-07-22T12:17:03;100525.09;;;26.25;54.63
52032;BME280;38044;45.148;39.604;2022-07-22T12:19:32;100518.84;;;26.14;55.83
52032;BME280;38044;45.148;39.604;2022-07-22T12:22:05;100544.75;;;26.35;56.21
52032;BME280;38044;45.148;39.604;2022-07-22T12:24:40;100542.34;;;26.44;55.54
52032;BME280;38044;45.148;39.604;2022-07-22T12:27:16;100465.41;;;25.90;54.61
52032;BME280;38044;45.148;39.604;2022-07-22T12:29:47;100533.72;;;26.31;52.06
52032;BME280;38044;45.148;39.604;2022-07-22T12:32:24;100513.38;;;25.93;52.66
52032;BME280;38044;45.148;39.604;2022-07-22T12:37:22;100470.53;;;24.99;54.35
52032;BME280;38044;45.148;39.604;2022-07-22T12:42:40;100561.38;;;25.42;54.35
52032;BME280;38044;45.148;39.604;2022-07-22T12:45:12;100507.84;;;24.92;54.81
52032;BME280;38044;45.148;39.604;2022-07-22T12:47:53;100571.91;;;25.07;55.56
52032;BME280;38044;45.148;39.604;2022-07-22T12:52:59;100552.38;;;24.39;57.71
52032;BME280;38044;45.148;39.604;2022-07-22T12:55:26;100533.38;;;24.09;58.15